Time;durP1;ratioP1;P1;durP2;ratioP2;P2;SDS_P1;SDS_P2;PMS_P1;PMS_P2;Temp;Humidity;BMP_temperature;BMP_pressure;BME280_temperature;BME280_humidity;BME280_pressure;Samples;Min_cycle;Max_cycle;Signal;HPM_P1;HPM_P2
2023/06/08 00:01:16;;;;;;;10.47;9.57;;;14.80;99.90;;;;;;5046183;28;20453;-78
2023/06/08 00:03:45;;;;;;;11.13;10.13;;;14.70;99.90;;;;;;5045215;28;20896;-81
2023/06/08 00:06:15;;;;;;;10.00;9.00;;;14.70;99.90;;;;;;5037146;28;20968;-77
2023/06/08 00:08:43;;;;;;;10.87;9.90;;;14.70;99.90;;;;;;5046032;28;20453;-81
2023/06/08 00:11:11;;;;;;;11.70;10.80;;;14.80;99.90;;;;;;5043566;28;20450;-80
2023/06/08 00:13:38;;;;;;;11.83;10.90;;;14.80;99.90;;;;;;5038421;28;20445;-81
2023/06/08 00:16:05;;;;;;;12.07;9.57;;;14.80;99.90;;;;;;5045682;28;20513;-78
2023/06/08 00:18:36;;;;;;;12.17;11.20;;;14.90;99.90;;;;;;5044777;28;20456;-78
2023/06/08 00:21:04;;;;;;;10.53;9.63;;;14.70;99.90;;;;;;5045618;28;20504;-80
2023/06/08 00:23:31;;;;;;;10.60;9.73;;;14.70;99.90;;;;;;5044761;28;20507;-80
2023/06/08 00:25:58;;;;;;;11.00;9.63;;;14.60;99.90;;;;;;5046286;28;20473;-78
2023/06/08 00:28:25;;;;;;;11.57;10.47;;;14.60;99.90;;;;;;5045365;28;20472;-79
2023/06/08 00:30:52;;;;;;;10.90;10.00;;;14.60;99.90;;;;;;5044294;28;20915;-82
2023/06/08 00:33:19;;;;;;;11.47;10.53;;;14.60;99.90;;;;;;5042853;28;20472;-78
2023/06/08 00:35:46;;;;;;;13.60;8.80;;;14.60;99.90;;;;;;5043828;28;20484;-78
2023/06/08 00:38:15;;;;;;;9.60;8.80;;;14.60;99.90;;;;;;5046370;28;20502;-76
2023/06/08 00:40:43;;;;;;;9.67;8.93;;;14.60;99.90;;;;;;5034520;28;20507;-81
2023/06/08 00:43:10;;;;;;;11.77;10.77;;;14.60;99.90;;;;;;5039874;28;20461;-81
2023/06/08 00:45:36;;;;;;;10.90;10.00;;;14.50;99.90;;;;;;5043187;28;20441;-77
2023/06/08 00:48:04;;;;;;;10.17;9.37;;;14.50;99.90;;;;;;5044908;28;20492;-78
2023/06/08 00:50:32;;;;;;;9.63;8.67;;;14.50;99.90;;;;;;5036220;28;20852;-78
2023/06/08 00:52:59;;;;;;;8.83;8.17;;;14.50;99.90;;;;;;5043910;28;20445;-77
2023/06/08 00:55:29;;;;;;;11.43;8.93;;;14.50;99.90;;;;;;5042460;28;20466;-76
2023/06/08 00:57:56;;;;;;;8.77;7.97;;;14.50;99.90;;;;;;5039096;28;20485;-78
2023/06/08 01:00:24;;;;;;;8.70;7.97;;;14.50;99.90;;;;;;5043016;28;20469;-81
2023/06/08 01:02:53;;;;;;;8.50;7.80;;;14.40;99.90;;;;;;5045301;28;20499;-78
2023/06/08 01:05:20;;;;;;;8.57;7.87;;;14.40;99.90;;;;;;5041069;28;20961;-78
2023/06/08 01:07:57;;;;;;;8.43;7.80;;;14.40;99.90;;;;;;5040568;28;20548;-78
2023/06/08 01:10:34;;;;;;;8.43;7.70;;;14.40;99.90;;;;;;5049404;28;20445;-79
2023/06/08 01:13:22;;;;;;;10.53;9.50;;;14.30;99.90;;;;;;5040965;28;20542;-78
2023/06/08 01:15:55;;;;;;;9.00;8.10;;;14.30;99.90;;;;;;5054431;28;20442;-79
2023/06/08 01:18:24;;;;;;;10.10;9.10;;;14.30;99.90;;;;;;5067944;28;20448;-78
2023/06/08 01:21:07;;;;;;;9.33;8.50;;;14.30;99.90;;;;;;5066847;28;20433;-78
2023/06/08 01:23:45;;;;;;;9.63;8.73;;;14.40;99.90;;;;;;5048008;28;20503;-78
2023/06/08 01:26:15;;;;;;;9.80;8.83;;;14.30;99.90;;;;;;5053827;28;20449;-79
2023/06/08 01:28:48;;;;;;;9.30;8.40;;;14.30;99.90;;;;;;5049084;28;20452;-84
2023/06/08 01:31:14;;;;;;;9.43;8.63;;;14.30;99.90;;;;;;5049773;28;20986;-80
2023/06/08 01:33:42;;;;;;;9.70;8.87;;;14.30;99.90;;;;;;5049384;28;21023;-79
2023/06/08 01:36:15;;;;;;;14.73;9.63;;;14.30;99.90;;;;;;5047790;28;20538;-80
2023/06/08 01:38:49;;;;;;;12.23;11.23;;;14.20;99.90;;;;;;5049689;28;20441;-79
2023/06/08 01:41:22;;;;;;;12.17;11.10;;;14.10;99.90;;;;;;5044147;28;20520;-79
2023/06/08 01:43:51;;;;;;;11.40;10.40;;;14.10;99.90;;;;;;5047957;28;20550;-79
2023/06/08 01:46:21;;;;;;;10.63;9.73;;;14.10;99.90;;;;;;5048500;28;20452;-77
2023/06/08 01:48:50;;;;;;;12.50;11.40;;;14.10;99.90;;;;;;5049653;28;20449;-79
2023/06/08 01:51:18;;;;;;;11.10;10.20;;;14.10;99.90;;;;;;5047662;28;20440;-78
2023/06/08 01:53:45;;;;;;;10.80;9.80;;;13.90;99.90;;;;;;5046278;28;20461;-79
2023/06/08 01:56:12;;;;;;;8.60;7.90;;;13.70;99.90;;;;;;5047209;28;20509;-79
2023/06/08 01:58:41;;;;;;;9.17;8.37;;;13.60;99.90;;;;;;5045672;28;20524;-81
2023/06/08 02:01:08;;;;;;;7.67;6.97;;;13.60;99.90;;;;;;5047737;28;20522;-80
2023/06/08 02:03:34;;;;;;;7.90;7.30;;;13.70;99.90;;;;;;5049742;28;20867;-78
2023/06/08 02:06:01;;;;;;;8.13;7.40;;;13.80;99.90;;;;;;5047360;28;20460;-79
2023/06/08 02:08:28;;;;;;;8.23;7.53;;;13.70;99.90;;;;;;5048612;28;20872;-80
2023/06/08 02:10:55;;;;;;;8.27;7.53;;;13.60;99.90;;;;;;5037652;28;20493;-82
2023/06/08 02:13:22;;;;;;;7.80;7.10;;;13.70;99.90;;;;;;5049113;28;20437;-82
2023/06/08 02:15:52;;;;;;;8.30;7.70;;;13.70;99.90;;;;;;5046544;28;20947;-78
2023/06/08 02:18:19;;;;;;;8.43;7.70;;;13.70;99.90;;;;;;5047921;28;20611;-79
2023/06/08 02:20:46;;;;;;;8.70;8.00;;;13.60;99.90;;;;;;5042424;28;20523;-78
2023/06/08 02:23:13;;;;;;;9.90;9.07;;;13.60;99.90;;;;;;5047113;28;20468;-78
2023/06/08 02:25:40;;;;;;;8.53;7.73;;;13.70;99.90;;;;;;5040787;28;20519;-83
2023/06/08 02:28:07;;;;;;;9.67;8.77;;;13.60;99.90;;;;;;5047453;28;20940;-82
2023/06/08 02:30:34;;;;;;;8.67;7.87;;;13.60;99.90;;;;;;5041804;28;20456;-81
2023/06/08 02:33:03;;;;;;;10.23;8.10;;;13.50;99.90;;;;;;5031682;28;20466;-80
2023/06/08 02:35:30;;;;;;;9.37;8.57;;;13.50;99.90;;;;;;5047895;28;20446;-79
2023/06/08 02:37:57;;;;;;;7.57;6.97;;;13.40;99.90;;;;;;5051409;28;20535;-77
2023/06/08 02:40:23;;;;;;;8.60;7.90;;;13.30;99.90;;;;;;5053217;28;21002;-78
2023/06/08 02:42:50;;;;;;;7.67;6.77;;;13.30;99.90;;;;;;5053924;28;20503;-78
2023/06/08 02:45:17;;;;;;;8.80;7.80;;;13.40;99.90;;;;;;5045994;28;20495;-81
2023/06/08 02:47:44;;;;;;;9.53;8.70;;;13.30;99.90;;;;;;5046770;28;20485;-78
2023/06/08 02:50:13;;;;;;;6.80;6.30;;;13.30;99.90;;;;;;5044344;28;20542;-78
2023/06/08 02:52:39;;;;;;;8.03;7.43;;;13.30;99.90;;;;;;5047500;28;20538;-79
2023/06/08 02:55:08;;;;;;;8.30;7.70;;;13.20;99.90;;;;;;5046767;28;20507;-79
2023/06/08 02:57:36;;;;;;;6.93;6.43;;;13.20;99.90;;;;;;5046824;28;20493;-80
2023/06/08 03:00:07;;;;;;;6.43;5.97;;;13.10;99.90;;;;;;5042210;28;20484;-81
2023/06/08 03:02:34;;;;;;;7.30;6.80;;;13.00;99.90;;;;;;5039461;28;20462;-79
2023/06/08 03:05:03;;;;;;;6.50;5.90;;;13.10;99.90;;;;;;5047416;28;20449;-79
2023/06/08 03:07:33;;;;;;;7.77;7.07;;;13.00;99.90;;;;;;5039557;28;20548;-80
2023/06/08 03:10:00;;;;;;;7.80;7.10;;;13.00;99.90;;;;;;5046144;28;20457;-82
2023/06/08 03:12:27;;;;;;;8.80;8.00;;;13.00;99.90;;;;;;5045606;28;20511;-79
2023/06/08 03:14:54;;;;;;;9.13;7.67;;;13.00;99.90;;;;;;5047597;28;20448;-79
2023/06/08 03:17:24;;;;;;;7.87;7.27;;;13.00;99.90;;;;;;5047395;28;20496;-78
2023/06/08 03:19:51;;;;;;;6.40;6.00;;;13.00;99.90;;;;;;5036709;28;20936;-79
2023/06/08 03:22:19;;;;;;;7.93;7.33;;;13.10;99.90;;;;;;5048347;28;20917;-81
2023/06/08 03:24:49;;;;;;;7.50;7.00;;;13.20;99.90;;;;;;5046383;28;20453;-80
2023/06/08 03:27:16;;;;;;;7.60;7.00;;;13.20;99.90;;;;;;5047275;28;20453;-80
2023/06/08 03:29:44;;;;;;;7.97;7.33;;;13.20;99.90;;;;;;5046848;28;20438;-80
2023/06/08 03:32:11;;;;;;;7.57;6.77;;;13.30;99.90;;;;;;5045751;28;21191;-79
2023/06/08 03:34:38;;;;;;;6.47;5.97;;;13.40;99.90;;;;;;5040390;28;20472;-79
2023/06/08 03:37:05;;;;;;;8.67;7.77;;;13.50;99.90;;;;;;5046209;28;20481;-80
2023/06/08 03:39:32;;;;;;;8.30;7.60;;;13.50;99.90;;;;;;5046927;28;20441;-80
2023/06/08 03:42:00;;;;;;;8.73;8.03;;;13.60;99.90;;;;;;5042704;28;20457;-79
2023/06/08 03:44:27;;;;;;;8.17;7.57;;;13.80;99.90;;;;;;5046557;28;21146;-81
2023/06/08 03:46:54;;;;;;;8.60;7.90;;;14.00;99.90;;;;;;5046518;28;20464;-83
2023/06/08 03:49:21;;;;;;;7.80;7.10;;;14.20;99.90;;;;;;5046789;28;20441;-83
2023/06/08 03:51:50;;;;;;;8.47;7.77;;;14.20;99.90;;;;;;5044457;28;20475;-82
2023/06/08 03:54:17;;;;;;;8.50;7.80;;;14.30;99.90;;;;;;5058632;28;20499;-82
2023/06/08 03:56:44;;;;;;;7.83;7.10;;;14.30;99.90;;;;;;5048965;28;20945;-82
2023/06/08 03:59:13;;;;;;;9.67;8.93;;;14.60;99.90;;;;;;5054880;28;20485;-76
2023/06/08 04:01:41;;;;;;;8.97;8.23;;;14.70;99.90;;;;;;5053745;28;20798;-80
2023/06/08 04:04:08;;;;;;;8.13;7.60;;;14.80;99.90;;;;;;5044954;28;20908;-78
2023/06/08 04:06:38;;;;;;;7.53;6.90;;;14.80;99.90;;;;;;5039175;28;20535;-77
2023/06/08 04:09:05;;;;;;;7.93;7.23;;;14.80;99.90;;;;;;5045061;28;20452;-79
2023/06/08 04:11:32;;;;;;;7.93;6.27;;;14.90;99.90;;;;;;5037618;28;20487;-85
2023/06/08 04:13:59;;;;;;;7.90;7.20;;;15.20;99.90;;;;;;5047803;28;20551;-76
2023/06/08 04:16:27;;;;;;;7.97;7.17;;;15.00;99.90;;;;;;5045462;28;20495;-84
2023/06/08 04:18:54;;;;;;;7.33;6.73;;;14.90;99.90;;;;;;5046382;28;20508;-79
2023/06/08 04:21:25;;;;;;;7.03;6.53;;;14.80;99.90;;;;;;5046949;28;20445;-79
2023/06/08 04:23:52;;;;;;;6.83;6.23;;;14.90;99.90;;;;;;5045431;28;20967;-79
2023/06/08 04:26:20;;;;;;;5.53;4.97;;;15.10;99.90;;;;;;5045382;28;20496;-78
2023/06/08 04:28:48;;;;;;;8.07;7.37;;;15.20;99.90;;;;;;5045205;28;20461;-81
2023/06/08 04:31:15;;;;;;;7.87;7.17;;;15.70;99.90;;;;;;5046121;28;20440;-80
2023/06/08 04:33:44;;;;;;;8.50;7.90;;;15.90;99.90;;;;;;5044275;28;20481;-79
2023/06/08 04:36:11;;;;;;;7.80;7.20;;;16.30;99.90;;;;;;5044168;28;20456;-79
2023/06/08 04:38:38;;;;;;;7.17;6.70;;;16.60;99.90;;;;;;5046593;28;20974;-78
2023/06/08 04:41:07;;;;;;;6.87;6.30;;;16.60;99.90;;;;;;5046688;28;20496;-79
2023/06/08 04:43:35;;;;;;;7.27;6.77;;;16.80;99.90;;;;;;5036611;28;20465;-81
2023/06/08 04:46:04;;;;;;;7.53;6.93;;;17.00;99.90;;;;;;5045697;28;20441;-79
2023/06/08 04:48:33;;;;;;;8.80;7.33;;;16.90;99.90;;;;;;5046089;28;20477;-83
2023/06/08 04:51:03;;;;;;;6.63;6.20;;;17.00;99.90;;;;;;5049195;28;20450;-79
2023/06/08 04:53:33;;;;;;;7.87;6.17;;;17.00;99.90;;;;;;5045779;28;20881;-80
2023/06/08 04:56:02;;;;;;;6.57;6.07;;;17.20;99.90;;;;;;5050172;28;20480;-80
2023/06/08 04:58:30;;;;;;;5.73;5.37;;;17.30;99.90;;;;;;5049326;28;20492;-80
2023/06/08 05:00:58;;;;;;;5.27;4.77;;;17.40;99.90;;;;;;5049207;28;20514;-81
2023/06/08 05:03:26;;;;;;;5.23;4.77;;;17.20;99.90;;;;;;5049382;28;21010;-77
2023/06/08 05:05:54;;;;;;;6.20;5.20;;;17.20;99.90;;;;;;5048254;28;20457;-78
2023/06/08 05:08:22;;;;;;;5.40;5.00;;;17.10;99.90;;;;;;5042000;28;20446;-77
2023/06/08 05:10:49;;;;;;;5.87;5.47;;;17.20;99.90;;;;;;5048874;28;20534;-76
2023/06/08 05:13:17;;;;;;;7.03;5.87;;;16.90;99.90;;;;;;5049537;28;20788;-79
2023/06/08 05:15:44;;;;;;;4.90;4.50;;;16.70;99.90;;;;;;5048228;28;20471;-79
2023/06/08 05:18:11;;;;;;;5.33;4.90;;;16.90;99.90;;;;;;5045713;28;20618;-77
2023/06/08 05:20:38;;;;;;;5.87;5.47;;;16.90;99.90;;;;;;5049004;28;20579;-76
2023/06/08 05:23:05;;;;;;;6.10;5.60;;;16.60;99.90;;;;;;5046714;28;20493;-80
2023/06/08 05:25:36;;;;;;;5.50;5.20;;;16.70;99.90;;;;;;5047274;28;20940;-76
2023/06/08 05:28:04;;;;;;;7.43;6.83;;;16.90;99.90;;;;;;5055050;28;20468;-77
2023/06/08 05:30:31;;;;;;;6.27;5.77;;;17.20;99.90;;;;;;5048346;28;20488;-76
2023/06/08 05:32:59;;;;;;;5.63;5.23;;;17.20;99.90;;;;;;5042625;28;20472;-77
2023/06/08 05:35:26;;;;;;;5.83;5.43;;;17.30;99.90;;;;;;5048330;28;20539;-80
2023/06/08 05:37:53;;;;;;;6.40;5.83;;;17.30;99.90;;;;;;5036325;28;20477;-79
2023/06/08 05:40:21;;;;;;;6.83;6.20;;;17.40;99.90;;;;;;5048582;28;20951;-76
2023/06/08 05:42:49;;;;;;;7.53;6.20;;;17.50;99.90;;;;;;5047970;28;20548;-77
2023/06/08 05:45:16;;;;;;;6.10;5.60;;;18.00;99.90;;;;;;5045423;28;20520;-79
2023/06/08 05:47:43;;;;;;;5.20;4.80;;;18.30;99.90;;;;;;5048482;28;21146;-80
2023/06/08 05:50:11;;;;;;;6.03;5.07;;;18.20;99.90;;;;;;5048871;28;20445;-80
2023/06/08 05:52:37;;;;;;;5.10;4.80;;;18.10;99.90;;;;;;5053637;28;20489;-79
2023/06/08 05:55:05;;;;;;;6.27;5.73;;;18.00;99.90;;;;;;5044380;28;20469;-77
2023/06/08 05:57:32;;;;;;;6.27;5.67;;;17.90;99.90;;;;;;5050759;28;20488;-77
2023/06/08 06:00:03;;;;;;;5.60;5.13;;;18.10;99.90;;;;;;5043406;28;20462;-77
2023/06/08 06:02:30;;;;;;;5.43;5.07;;;18.00;99.90;;;;;;5058033;28;20455;-77
2023/06/08 06:04:57;;;;;;;5.77;5.37;;;18.00;99.90;;;;;;5043319;28;20485;-77
2023/06/08 06:07:24;;;;;;;5.13;4.73;;;18.50;99.90;;;;;;5047642;28;20539;-80
2023/06/08 06:09:51;;;;;;;5.07;4.70;;;18.80;99.90;;;;;;5049322;28;20498;-76
2023/06/08 06:12:18;;;;;;;4.87;4.57;;;18.90;99.90;;;;;;5044153;28;20531;-76
2023/06/08 06:14:45;;;;;;;5.97;5.30;;;19.00;99.90;;;;;;5050882;28;20882;-76
2023/06/08 06:17:15;;;;;;;5.50;5.10;;;19.20;99.90;;;;;;5048047;28;20477;-80
2023/06/08 06:19:42;;;;;;;5.03;4.73;;;19.40;99.90;;;;;;5050651;28;20497;-80
2023/06/08 06:22:10;;;;;;;4.77;4.47;;;19.60;99.90;;;;;;5047269;28;20530;-77
2023/06/08 06:24:37;;;;;;;4.93;4.60;;;19.90;99.90;;;;;;5038016;28;20465;-77
2023/06/08 06:27:05;;;;;;;5.10;4.80;;;20.00;99.90;;;;;;5046928;28;20489;-76
2023/06/08 06:29:32;;;;;;;5.17;4.80;;;19.70;99.90;;;;;;5045764;28;20817;-77
2023/06/08 06:32:00;;;;;;;4.63;4.33;;;20.20;99.90;;;;;;5036809;28;20927;-78
2023/06/08 06:34:28;;;;;;;5.20;4.40;;;20.50;99.90;;;;;;5046754;28;20457;-77
2023/06/08 06:36:56;;;;;;;6.60;4.53;;;20.30;99.90;;;;;;5043138;28;20461;-75
2023/06/08 06:39:24;;;;;;;5.93;5.50;;;20.50;99.90;;;;;;5047651;28;20487;-76
2023/06/08 06:41:51;;;;;;;6.17;5.57;;;20.30;99.90;;;;;;5039610;28;20468;-77
2023/06/08 06:44:17;;;;;;;5.80;5.40;;;20.20;99.90;;;;;;5047663;28;20464;-78
2023/06/08 06:46:44;;;;;;;6.90;6.40;;;20.40;99.90;;;;;;5050783;28;20501;-81
2023/06/08 06:49:11;;;;;;;8.10;7.30;;;20.60;99.90;;;;;;5050573;28;20449;-75
2023/06/08 06:51:41;;;;;;;5.80;4.97;;;20.90;99.90;;;;;;5066457;28;20476;-74
2023/06/08 06:54:08;;;;;;;6.40;5.90;;;20.40;99.90;;;;;;5054227;28;20529;-77
2023/06/08 06:56:34;;;;;;;7.50;7.00;;;20.40;99.90;;;;;;5050400;28;20955;-79
2023/06/08 06:59:02;;;;;;;8.13;6.07;;;20.70;99.90;;;;;;5042443;28;20555;-77
2023/06/08 07:01:30;;;;;;;7.17;6.47;;;20.80;99.90;;;;;;5045760;28;20936;-78
2023/06/08 07:03:57;;;;;;;6.27;5.87;;;20.70;99.90;;;;;;5042288;28;20503;-77
2023/06/08 07:06:25;;;;;;;7.83;7.20;;;20.90;99.90;;;;;;5045824;28;20452;-80
2023/06/08 07:08:54;;;;;;;7.13;6.53;;;21.50;99.90;;;;;;5044184;28;20449;-77
2023/06/08 07:11:20;;;;;;;6.47;5.87;;;21.50;99.90;;;;;;5031560;28;21221;-77
2023/06/08 07:13:47;;;;;;;6.13;5.70;;;21.50;99.90;;;;;;5044373;28;20480;-77
2023/06/08 07:16:14;;;;;;;8.00;7.20;;;21.50;99.90;;;;;;5043571;28;20441;-77
2023/06/08 07:18:41;;;;;;;8.17;7.00;;;21.30;99.90;;;;;;5033052;28;20933;-77
2023/06/08 07:21:08;;;;;;;7.53;6.87;;;21.50;99.90;;;;;;5043082;28;20850;-77
2023/06/08 07:23:35;;;;;;;6.47;6.03;;;21.30;99.90;;;;;;5041337;28;20462;-78
2023/06/08 07:26:04;;;;;;;7.73;7.13;;;21.30;99.90;;;;;;5044629;28;20938;-77
2023/06/08 07:28:31;;;;;;;7.97;5.93;;;21.60;99.90;;;;;;5046676;28;20465;-80
2023/06/08 07:30:58;;;;;;;8.60;7.50;;;21.10;99.90;;;;;;5043186;28;20621;-81
2023/06/08 07:33:25;;;;;;;6.90;6.40;;;21.20;99.90;;;;;;5045248;28;20469;-81
2023/06/08 07:35:52;;;;;;;6.87;6.27;;;21.50;99.90;;;;;;5042787;28;20945;-77
2023/06/08 07:38:18;;;;;;;6.87;6.37;;;22.00;99.90;;;;;;5038537;28;20567;-77
2023/06/08 07:40:45;;;;;;;6.90;6.43;;;22.40;99.90;;;;;;5044116;28;21064;-78
2023/06/08 07:43:14;;;;;;;6.30;5.80;;;22.40;99.90;;;;;;5043287;28;20465;-80
2023/06/08 07:45:41;;;;;;;7.10;6.50;;;22.60;99.90;;;;;;5044024;28;20530;-77
2023/06/08 07:48:08;;;;;;;6.70;6.20;;;22.90;99.90;;;;;;5043088;28;20484;-77
2023/06/08 07:50:35;;;;;;;6.20;5.80;;;22.60;99.90;;;;;;5042182;28;20477;-81
2023/06/08 07:53:02;;;;;;;6.33;5.83;;;22.90;99.90;;;;;;5043189;28;20453;-81
2023/06/08 07:55:28;;;;;;;6.80;6.23;;;22.80;99.90;;;;;;5045822;28;20448;-74
2023/06/08 07:57:55;;;;;;;7.07;6.57;;;22.90;99.90;;;;;;5042812;28;20485;-77
2023/06/08 08:00:26;;;;;;;7.20;6.60;;;22.40;99.90;;;;;;5042290;28;20457;-77
2023/06/08 08:02:55;;;;;;;7.03;6.53;;;22.20;99.90;;;;;;5041707;28;20543;-81
2023/06/08 08:05:22;;;;;;;8.80;8.10;;;22.50;99.90;;;;;;5040547;28;20468;-77
2023/06/08 08:07:49;;;;;;;8.90;8.23;;;22.10;99.90;;;;;;5043541;28;20485;-77
2023/06/08 08:10:16;;;;;;;8.03;7.33;;;21.50;99.90;;;;;;5044432;28;20502;-77
2023/06/08 08:12:43;;;;;;;8.87;8.17;;;21.60;99.90;;;;;;5034056;28;20461;-77
2023/06/08 08:15:10;;;;;;;9.20;8.50;;;21.70;99.90;;;;;;5045831;28;20461;-80
2023/06/08 08:17:39;;;;;;;9.43;8.77;;;21.90;99.90;;;;;;5040257;28;21262;-77
2023/06/08 08:20:07;;;;;;;8.90;8.20;;;22.10;99.90;;;;;;5041864;28;20488;-77
2023/06/08 08:22:34;;;;;;;10.63;6.60;;;22.20;99.90;;;;;;5045320;28;20855;-80
2023/06/08 08:25:01;;;;;;;9.00;8.30;;;22.60;99.90;;;;;;5044771;28;20440;-77
2023/06/08 08:27:28;;;;;;;9.30;8.43;;;22.80;99.90;;;;;;5048472;28;20470;-81
2023/06/08 08:29:55;;;;;;;8.43;7.73;;;23.00;99.90;;;;;;5045729;28;20560;-78
2023/06/08 08:32:23;;;;;;;6.93;6.33;;;22.80;99.90;;;;;;5044257;28;20527;-77
2023/06/08 08:34:51;;;;;;;7.17;6.57;;;22.80;99.90;;;;;;5045533;28;20527;-76
2023/06/08 08:37:18;;;;;;;8.80;5.47;;;23.30;99.90;;;;;;5044493;28;20452;-77
2023/06/08 08:39:45;;;;;;;5.73;5.30;;;23.20;99.90;;;;;;5046002;28;20563;-77
2023/06/08 08:42:15;;;;;;;7.33;6.70;;;23.20;99.90;;;;;;5048744;28;20538;-84
2023/06/08 08:44:43;;;;;;;6.70;6.10;;;23.10;99.90;;;;;;5042808;28;20520;-78
2023/06/08 08:47:10;;;;;;;7.83;7.10;;;23.00;99.90;;;;;;5044429;28;20548;-78
2023/06/08 08:49:40;;;;;;;9.17;6.33;;;23.30;99.90;;;;;;5042808;28;20474;-78
2023/06/08 08:52:09;;;;;;;6.90;6.40;;;24.10;99.90;;;;;;5042144;28;20530;-77
2023/06/08 08:54:38;;;;;;;6.77;6.17;;;24.10;99.90;;;;;;5045075;28;20458;-77
2023/06/08 08:57:08;;;;;;;6.27;5.80;;;24.60;99.90;;;;;;5042040;28;20478;-79
2023/06/08 08:59:37;;;;;;;6.60;6.10;;;24.90;99.60;;;;;;5042284;28;20486;-80
2023/06/08 09:02:05;;;;;;;5.33;5.03;;;25.30;98.20;;;;;;5046188;28;20497;-83
2023/06/08 09:04:32;;;;;;;5.57;5.07;;;24.80;99.50;;;;;;5041365;28;20499;-79
2023/06/08 09:06:59;;;;;;;5.97;5.50;;;24.60;98.90;;;;;;5043839;28;21035;-88
2023/06/08 09:09:28;;;;;;;5.97;5.37;;;24.30;98.40;;;;;;5047757;28;20482;-88
2023/06/08 09:11:59;;;;;;;5.90;5.50;;;24.40;99.50;;;;;;5042573;28;20456;-77
2023/06/08 09:14:27;;;;;;;6.43;5.93;;;23.60;99.10;;;;;;5044433;28;20450;-77
2023/06/08 09:16:55;;;;;;;5.43;5.03;;;23.80;99.90;;;;;;5043546;28;20579;-77
2023/06/08 09:19:23;;;;;;;5.47;5.07;;;24.00;99.20;;;;;;5040897;28;20493;-77
2023/06/08 09:21:50;;;;;;;5.90;5.50;;;23.70;99.30;;;;;;5046789;28;20989;-78
2023/06/08 09:24:19;;;;;;;4.90;4.60;;;23.60;99.40;;;;;;5042682;28;20569;-80
2023/06/08 09:26:50;;;;;;;7.00;6.40;;;23.70;98.40;;;;;;5046836;28;20454;-77
2023/06/08 09:29:36;;;;;;;4.90;4.50;;;24.20;99.70;;;;;;5047917;28;20471;-77
2023/06/08 09:32:04;;;;;;;5.23;4.83;;;24.40;97.90;;;;;;5043776;28;20466;-78
2023/06/08 09:34:33;;;;;;;4.23;3.93;;;24.60;95.60;;;;;;5044118;28;20482;-77
2023/06/08 09:37:07;;;;;;;3.93;3.73;;;24.60;95.40;;;;;;5047115;28;20438;-77
2023/06/08 09:39:41;;;;;;;3.77;3.57;;;25.30;93.50;;;;;;5051803;28;20483;-77
2023/06/08 09:42:10;;;;;;;4.00;3.73;;;25.00;94.00;;;;;;5048879;28;20938;-77
2023/06/08 09:44:37;;;;;;;3.80;3.60;;;24.50;93.00;;;;;;5042427;28;20474;-82
2023/06/08 09:47:22;;;;;;;4.40;4.00;;;25.40;93.20;;;;;;5043325;28;20866;-77
2023/06/08 09:49:51;;;;;;;3.63;3.43;;;26.00;93.20;;;;;;5038219;28;20471;-78
2023/06/08 09:52:21;;;;;;;2.07;1.97;;;25.80;90.70;;;;;;5044515;28;20792;-82
2023/06/08 09:54:50;;;;;;;2.77;2.57;;;25.40;90.20;;;;;;5047158;28;21033;-80
2023/06/08 09:57:20;;;;;;;5.37;4.97;;;25.30;88.60;;;;;;5040583;28;20563;-79
2023/06/08 09:59:51;;;;;;;4.07;3.73;;;24.90;92.40;;;;;;5054179;28;20980;-79
2023/06/08 10:02:22;;;;;;;6.63;3.10;;;25.60;92.70;;;;;;5044814;28;20974;-79
2023/06/08 10:04:54;;;;;;;2.90;2.70;;;26.70;92.80;;;;;;5048233;28;20460;-79
2023/06/08 10:07:25;;;;;;;3.40;3.10;;;27.10;88.10;;;;;;5048570;28;20712;-79
2023/06/08 10:09:59;;;;;;;3.50;3.20;;;27.20;88.20;;;;;;5047860;28;20548;-79
2023/06/08 10:12:29;;;;;;;3.50;3.30;;;27.20;88.00;;;;;;5039620;28;20465;-82
2023/06/08 10:14:58;;;;;;;4.60;4.30;;;26.90;84.30;;;;;;5046845;28;20468;-79
2023/06/08 10:17:27;;;;;;;4.10;3.90;;;26.80;84.00;;;;;;5038625;28;20543;-79
2023/06/08 10:19:54;;;;;;;4.70;4.10;;;26.00;88.10;;;;;;5042392;28;20477;-81
2023/06/08 10:22:21;;;;;;;5.07;4.77;;;26.40;88.30;;;;;;5044368;28;20518;-82
2023/06/08 10:24:50;;;;;;;5.17;4.07;;;26.90;91.10;;;;;;5045050;28;20456;-83
2023/06/08 10:27:30;;;;;;;1.90;1.80;;;26.70;87.90;;;;;;5048649;28;20453;-82
2023/06/08 10:29:58;;;;;;;3.77;3.47;;;26.50;83.70;;;;;;5043957;28;20542;-79
2023/06/08 10:32:32;;;;;;;3.97;3.67;;;25.90;86.60;;;;;;5041759;28;20525;-77
2023/06/08 10:35:02;;;;;;;4.00;3.70;;;25.30;89.60;;;;;;5043739;28;20485;-76
2023/06/08 10:37:30;;;;;;;3.00;2.80;;;25.60;90.90;;;;;;5041515;28;20454;-76
2023/06/08 10:39:59;;;;;;;3.43;3.23;;;25.60;85.80;;;;;;5042125;28;20477;-77
2023/06/08 10:42:26;;;;;;;5.03;3.67;;;25.40;90.30;;;;;;5041781;28;20496;-76
2023/06/08 10:44:56;;;;;;;3.10;2.90;;;25.20;90.60;;;;;;5044354;28;20457;-76
2023/06/08 10:47:23;;;;;;;2.50;2.30;;;24.80;86.60;;;;;;5044867;28;20488;-78
2023/06/08 10:49:57;;;;;;;2.90;2.70;;;24.60;89.70;;;;;;5043291;28;20462;-77
2023/06/08 10:52:25;;;;;;;2.47;2.03;;;24.10;87.20;;;;;;5042419;28;20459;-76
2023/06/08 10:54:56;;;;;;;3.00;2.80;;;24.10;90.40;;;;;;5047498;28;20464;-80
2023/06/08 10:57:38;;;;;;;6.63;3.40;;;23.90;90.20;;;;;;5044655;28;20453;-76
2023/06/08 11:00:44;;;;;;;1.87;1.77;;;23.80;87.60;;;;;;5046063;28;20489;-77
2023/06/08 11:03:16;;;;;;;2.63;2.43;;;23.90;89.70;;;;;;5058267;28;20776;-77
2023/06/08 11:05:45;;;;;;;2.97;2.77;;;23.80;90.50;;;;;;5045024;28;20504;-77
2023/06/08 11:08:12;;;;;;;2.53;2.40;;;23.70;89.90;;;;;;5045829;28;20461;-81
2023/06/08 11:10:40;;;;;;;2.77;2.57;;;23.70;90.20;;;;;;5044833;28;20541;-78
2023/06/08 11:13:09;;;;;;;3.47;3.23;;;23.80;90.00;;;;;;5046823;28;20461;-78
2023/06/08 11:15:37;;;;;;;3.67;3.47;;;23.40;91.40;;;;;;5047264;28;21295;-77
2023/06/08 11:18:08;;;;;;;3.97;3.60;;;23.10;93.90;;;;;;5034398;28;20476;-79
2023/06/08 11:20:37;;;;;;;4.47;4.07;;;22.80;95.50;;;;;;5042519;28;21014;-78
2023/06/08 11:23:06;;;;;;;4.57;4.23;;;22.80;95.00;;;;;;5047108;28;20454;-78
2023/06/08 11:25:34;;;;;;;3.60;3.40;;;22.80;95.00;;;;;;5042375;28;21109;-77
2023/06/08 11:28:02;;;;;;;3.70;3.43;;;22.70;96.40;;;;;;5043778;28;20559;-77
2023/06/08 11:30:31;;;;;;;3.17;2.97;;;22.80;96.90;;;;;;5042454;28;20458;-78
2023/06/08 11:32:59;;;;;;;3.57;3.27;;;22.80;95.80;;;;;;5046581;28;20519;-79
2023/06/08 11:35:27;;;;;;;3.50;3.20;;;23.20;95.50;;;;;;5045202;28;20440;-80
2023/06/08 11:37:59;;;;;;;4.37;4.07;;;23.30;94.20;;;;;;5044911;28;20559;-82
2023/06/08 11:40:27;;;;;;;3.13;2.90;;;23.60;94.10;;;;;;5040593;28;20832;-78
2023/06/08 11:42:55;;;;;;;3.93;3.60;;;24.20;94.90;;;;;;5041127;28;20821;-78
2023/06/08 11:45:22;;;;;;;3.53;3.33;;;24.40;91.80;;;;;;5045263;28;20977;-79
2023/06/08 11:47:52;;;;;;;3.80;3.50;;;24.60;90.70;;;;;;5048388;28;20525;-79
2023/06/08 11:50:20;;;;;;;3.20;3.00;;;24.40;91.00;;;;;;5045908;28;20472;-76
2023/06/08 11:52:48;;;;;;;3.90;3.70;;;24.30;91.30;;;;;;5049402;28;20505;-81
2023/06/08 11:55:19;;;;;;;3.00;2.60;;;24.30;91.30;;;;;;5053845;28;20449;-78
2023/06/08 11:57:49;;;;;;;3.13;2.93;;;24.60;90.60;;;;;;5060558;28;20502;-78
2023/06/08 12:00:18;;;;;;;2.87;2.67;;;24.60;90.10;;;;;;5050461;28;20478;-78
2023/06/08 12:02:47;;;;;;;3.77;3.30;;;24.60;90.00;;;;;;5051058;28;20915;-79
2023/06/08 12:05:16;;;;;;;3.73;3.43;;;24.70;90.80;;;;;;5049445;28;20928;-78
2023/06/08 12:07:56;;;;;;;3.47;3.17;;;24.80;91.90;;;;;;5044475;28;20466;-81
2023/06/08 12:10:24;;;;;;;2.30;2.20;;;24.90;91.90;;;;;;5045737;28;20585;-80
2023/06/08 12:12:51;;;;;;;3.57;3.37;;;24.50;92.80;;;;;;5039369;28;20461;-81
2023/06/08 12:15:18;;;;;;;3.77;3.47;;;24.50;92.90;;;;;;5046342;28;20441;-79
2023/06/08 12:17:46;;;;;;;3.67;3.37;;;24.50;92.10;;;;;;5048196;28;20439;-78
2023/06/08 12:20:16;;;;;;;3.30;3.00;;;24.70;92.90;;;;;;5043735;28;20777;-77
2023/06/08 12:22:43;;;;;;;3.67;3.40;;;24.60;93.60;;;;;;5042931;28;20455;-77
2023/06/08 12:25:11;;;;;;;2.70;2.50;;;24.40;92.10;;;;;;5043685;28;20447;-76
2023/06/08 12:27:39;;;;;;;3.23;3.00;;;24.20;92.90;;;;;;5046090;28;20549;-77
2023/06/08 12:30:08;;;;;;;3.70;3.50;;;23.60;94.10;;;;;;5044932;28;21015;-80
2023/06/08 12:32:36;;;;;;;3.67;2.97;;;23.50;95.50;;;;;;5040319;28;20471;-78
2023/06/08 12:35:04;;;;;;;3.40;3.13;;;23.00;95.90;;;;;;5042683;28;20492;-78
2023/06/08 12:37:31;;;;;;;2.80;2.60;;;22.80;97.30;;;;;;5045260;28;20464;-80
2023/06/08 12:39:58;;;;;;;3.37;3.17;;;22.40;97.30;;;;;;5045796;28;20477;-81
2023/06/08 12:42:26;;;;;;;5.50;3.43;;;22.40;98.00;;;;;;5045709;28;20546;-77
2023/06/08 12:44:53;;;;;;;3.40;2.93;;;22.50;97.70;;;;;;5046136;28;20445;-81
2023/06/08 12:47:20;;;;;;;3.67;3.47;;;22.60;98.00;;;;;;5044292;28;20925;-80
2023/06/08 12:49:47;;;;;;;2.67;2.50;;;22.80;98.50;;;;;;5044888;28;20524;-78
2023/06/08 12:52:17;;;;;;;2.47;2.33;;;22.30;95.80;;;;;;5045498;28;20453;-78